createdAt,value
2023-03-06T00:01:48.672Z,98323.19
2023-03-06T00:04:15.724Z,98328.59
2023-03-06T00:06:42.497Z,98321.53
2023-03-06T00:09:09.906Z,98316.41
2023-03-06T00:11:36.817Z,98323.09
2023-03-06T00:14:05.036Z,98323.59
2023-03-06T00:16:31.923Z,98313.88
2023-03-06T00:18:58.765Z,98309.25
2023-03-06T00:21:25.554Z,98303.25
2023-03-06T00:23:52.358Z,98307.28
2023-03-06T00:26:19.143Z,98308.34
2023-03-06T00:28:46.052Z,98295.59
2023-03-06T00:31:14.309Z,98300.44
2023-03-06T00:33:42.262Z,98296.59
2023-03-06T00:36:09.444Z,98294.38
2023-03-06T00:38:37.264Z,98298.06
2023-03-06T00:41:08.479Z,98289.09
2023-03-06T00:43:35.349Z,98293.16
2023-03-06T00:46:02.265Z,98289.09
2023-03-06T00:48:30.459Z,98283.19
2023-03-06T00:50:57.258Z,98281.56
2023-03-06T00:53:24.246Z,98274.53
2023-03-06T00:55:51.376Z,98275.63
2023-03-06T00:58:18.290Z,98269.66
2023-03-06T01:00:45.692Z,98272.34
2023-03-06T01:03:12.675Z,98273.41
2023-03-06T01:05:41.123Z,98268.03
2023-03-06T01:08:08.861Z,98264.50
2023-03-06T01:10:38.949Z,98260.19
2023-03-06T01:13:06.073Z,98267.19
2023-03-06T01:15:33.072Z,98252.34
2023-03-06T01:18:00.216Z,98253.41
2023-03-06T01:20:27.240Z,98260.66
2023-03-06T01:22:56.632Z,98248.03
2023-03-06T01:25:25.033Z,98240.19
2023-03-06T01:27:53.052Z,98240.44
2023-03-06T01:30:20.640Z,98242.34
2023-03-06T01:32:48.295Z,98242.56
2023-03-06T01:35:15.190Z,98234.72
2023-03-06T01:37:42.220Z,98217.75
2023-03-06T01:40:12.536Z,98221.50
2023-03-06T01:42:40.240Z,98225.28
2023-03-06T01:45:29.137Z,98213.13
2023-03-06T01:47:56.113Z,98206.91
2023-03-06T01:50:23.126Z,98207.97
2023-03-06T01:52:52.994Z,98214.16
2023-03-06T01:55:23.322Z,98211.72
2023-03-06T01:57:55.007Z,98203.06
2023-03-06T02:00:25.050Z,98205.19
2023-03-06T02:02:54.961Z,98201.91
2023-03-06T02:05:22.273Z,98197.34
2023-03-06T02:07:50.729Z,98192.22
2023-03-06T02:10:18.771Z,98194.06
2023-03-06T02:12:49.279Z,98184.13
2023-03-06T02:15:18.820Z,98188.69
2023-03-06T02:17:47.945Z,98178.16
2023-03-06T02:20:24.985Z,98176.31
2023-03-06T02:22:59.632Z,98178.16
2023-03-06T02:25:36.236Z,98173.25
2023-03-06T02:28:04.462Z,98165.19
2023-03-06T02:30:31.863Z,98170.56
2023-03-06T02:33:00.827Z,98166.25
2023-03-06T02:35:30.189Z,98152.00
2023-03-06T02:37:59.769Z,98155.72
2023-03-06T02:40:26.699Z,98151.41
2023-03-06T02:42:57.475Z,98152.50
2023-03-06T02:45:31.957Z,98151.66
2023-03-06T02:47:58.798Z,98149.22
2023-03-06T02:50:25.798Z,98153.78
2023-03-06T02:52:52.652Z,98157.53
2023-03-06T02:55:19.468Z,98152.97
2023-03-06T02:57:46.593Z,98156.72
2023-03-06T03:00:15.830Z,98153.22
2023-03-06T03:02:44.031Z,98142.44
2023-03-06T03:05:10.826Z,98142.69
2023-03-06T03:07:41.668Z,98147.28
2023-03-06T03:10:10.411Z,98138.38
2023-03-06T03:12:37.300Z,98140.25
2023-03-06T03:15:04.764Z,98133.22
2023-03-06T03:17:36.740Z,98141.31
2023-03-06T03:20:04.603Z,98142.13
2023-03-06T03:22:31.492Z,98136.44
2023-03-06T03:24:58.282Z,98120.28
2023-03-06T03:27:25.282Z,98129.16
2023-03-06T03:29:52.337Z,98122.16
2023-03-06T03:32:19.176Z,98124.84
2023-03-06T03:34:47.773Z,98132.91
2023-03-06T03:37:14.604Z,98128.84
2023-03-06T03:39:42.786Z,98127.22
2023-03-06T03:42:10.675Z,98132.59
2023-03-06T03:44:37.519Z,98130.94
2023-03-06T03:47:05.209Z,98127.22
2023-03-06T03:49:32.124Z,98124.53
2023-03-06T03:52:01.678Z,98119.41
2023-03-06T03:54:31.333Z,98119.41
2023-03-06T03:56:58.436Z,98132.03
2023-03-06T03:59:30.359Z,98116.13
2023-03-06T04:02:16.033Z,98118.00
2023-03-06T04:04:51.292Z,98119.88
2023-03-06T04:07:19.687Z,98120.13
2023-03-06T04:09:47.363Z,98119.03
2023-03-06T04:12:14.337Z,98119.03
2023-03-06T04:14:42.081Z,98118.50
2023-03-06T04:17:08.953Z,98115.81
2023-03-06T04:19:35.734Z,98112.88
2023-03-06T04:22:02.601Z,98114.72
2023-03-06T04:24:33.158Z,98111.22
2023-03-06T04:27:00.492Z,98108.81
2023-03-06T04:29:27.369Z,98106.91
2023-03-06T04:31:54.290Z,98105.03
2023-03-06T04:34:21.322Z,98105.28
2023-03-06T04:36:48.534Z,98098.03
2023-03-06T04:39:17.228Z,98096.38
2023-03-06T04:41:45.497Z,98098.53
2023-03-06T04:44:12.416Z,98098.53
2023-03-06T04:46:39.214Z,98090.22
2023-03-06T04:49:07.464Z,98093.13
2023-03-06T04:51:36.809Z,98083.44
2023-03-06T04:54:04.085Z,98084.47
2023-03-06T04:56:31.026Z,98087.19
2023-03-06T04:58:59.288Z,98088.81
2023-03-06T05:01:26.126Z,98081.78
2023-03-06T05:03:53.079Z,98082.03
2023-03-06T05:06:19.842Z,98083.94
2023-03-06T05:08:47.443Z,98085.78
2023-03-06T05:11:14.308Z,98085.78
2023-03-06T05:13:41.191Z,98075.03
2023-03-06T05:16:09.714Z,98076.94
2023-03-06T05:18:37.145Z,98072.59
2023-03-06T05:21:04.933Z,98077.97
2023-03-06T05:23:33.314Z,98076.34
2023-03-06T05:26:00.497Z,98081.72
2023-03-06T05:28:28.650Z,98082.78
2023-03-06T05:30:55.807Z,98071.78
2023-03-06T05:33:23.960Z,98081.72
2023-03-06T05:35:50.794Z,98073.66
2023-03-06T05:38:17.633Z,98080.09
2023-03-06T05:40:45.323Z,98077.41
2023-03-06T05:43:12.504Z,98076.81
2023-03-06T05:45:40.612Z,98066.31
2023-03-06T05:48:08.294Z,98073.41
2023-03-06T05:50:36.520Z,98079.84
2023-03-06T05:53:03.839Z,98076.34
2023-03-06T05:55:30.662Z,98074.25
2023-03-06T05:57:57.516Z,98081.06
2023-03-06T06:00:24.918Z,98075.28
2023-03-06T06:02:51.784Z,98064.09
2023-03-06T06:05:18.620Z,98061.78
2023-03-06T06:07:46.848Z,98067.56
2023-03-06T06:10:13.701Z,98071.75
2023-03-06T06:12:40.858Z,98066.22
2023-03-06T06:15:08.614Z,98070.34
2023-03-06T06:17:35.636Z,98071.53
2023-03-06T06:20:02.462Z,98074.88
2023-03-06T06:22:29.526Z,98072.56
2023-03-06T06:24:57.965Z,98077.75
2023-03-06T06:27:24.735Z,98077.31
2023-03-06T06:29:52.680Z,98079.56
2023-03-06T06:32:19.752Z,98084.78
2023-03-06T06:34:46.595Z,98087.28
2023-03-06T06:37:13.481Z,98087.34
2023-03-06T06:39:40.509Z,98087.63
2023-03-06T06:42:29.859Z,98087.38
2023-03-06T06:44:56.876Z,98086.59
2023-03-06T06:47:25.336Z,98087.63
2023-03-06T06:49:53.916Z,98082.25
2023-03-06T06:52:20.803Z,98084.16
2023-03-06T06:54:47.678Z,98086.84
2023-03-06T06:57:16.524Z,98090.59
2023-03-06T06:59:43.364Z,98084.88
2023-03-06T07:02:10.927Z,98082.44
2023-03-06T07:04:42.401Z,98084.59
2023-03-06T07:07:13.530Z,98085.91
2023-03-06T07:09:40.371Z,98088.84
2023-03-06T07:12:07.993Z,98089.34
2023-03-06T07:14:36.442Z,98097.91
2023-03-06T07:17:03.523Z,98091.97
2023-03-06T07:19:30.671Z,98085.44
2023-03-06T07:21:57.808Z,98090.50
2023-03-06T07:24:24.820Z,98090.22
2023-03-06T07:26:51.887Z,98093.63
2023-03-06T07:29:18.997Z,98101.41
2023-03-06T07:31:47.292Z,98099.50
2023-03-06T07:34:14.953Z,98089.75
2023-03-06T07:36:42.136Z,98092.16
2023-03-06T07:39:09.719Z,98089.47
2023-03-06T07:41:36.728Z,98087.84
2023-03-06T07:44:03.609Z,98084.25
2023-03-06T07:46:30.589Z,98090.72
2023-03-06T07:48:58.871Z,98093.66
2023-03-06T07:51:25.784Z,98094.13
2023-03-06T07:53:52.598Z,98093.06
2023-03-06T07:56:19.555Z,98094.19
2023-03-06T07:58:47.216Z,98090.97
2023-03-06T08:01:16.287Z,98098.94
2023-03-06T08:03:43.477Z,98091.38
2023-03-06T08:06:13.671Z,98088.34
2023-03-06T08:08:42.149Z,98087.81
2023-03-06T08:11:11.372Z,98091.56
2023-03-06T08:13:38.655Z,98089.91
2023-03-06T08:16:06.597Z,98094.25
2023-03-06T08:18:34.064Z,98096.13
2023-03-06T08:21:02.769Z,98096.38
2023-03-06T08:23:31.310Z,98102.00
2023-03-06T08:25:58.691Z,98108.44
2023-03-06T08:28:25.673Z,98110.56
2023-03-06T08:30:52.576Z,98111.63
2023-03-06T08:33:19.380Z,98110.00
2023-03-06T08:35:46.149Z,98105.69
2023-03-06T08:38:13.558Z,98109.44
2023-03-06T08:40:41.913Z,98107.00
2023-03-06T08:43:09.316Z,98112.63
2023-03-06T08:45:36.382Z,98123.41
2023-03-06T08:48:03.419Z,98115.53
2023-03-06T08:50:30.218Z,98135.44
2023-03-06T08:52:57.048Z,98131.34
2023-03-06T08:55:23.928Z,98130.31
2023-03-06T08:57:52.090Z,98127.84
2023-03-06T09:00:19.707Z,98132.41
2023-03-06T09:02:46.549Z,98130.19
2023-03-06T09:05:13.347Z,98129.41
2023-03-06T09:07:40.298Z,98131.28
2023-03-06T09:10:08.489Z,98126.97
2023-03-06T09:12:48.824Z,98128.03
2023-03-06T09:15:18.048Z,98125.56
2023-03-06T09:17:44.914Z,98119.84
2023-03-06T09:20:12.914Z,98120.91
2023-03-06T09:22:42.385Z,98130.06
2023-03-06T09:25:10.514Z,98131.13
2023-03-06T09:27:39.601Z,98133.81
2023-03-06T09:30:07.903Z,98132.16
2023-03-06T09:32:36.166Z,98134.84
2023-03-06T09:35:03.379Z,98131.59
2023-03-06T09:37:30.593Z,98127.28
2023-03-06T09:39:57.798Z,98136.16
2023-03-06T09:42:25.072Z,98131.06
2023-03-06T09:44:55.244Z,98134.53
2023-03-06T09:47:57.232Z,98139.38
2023-03-06T09:50:32.413Z,98146.63
2023-03-06T09:53:15.353Z,98144.16
2023-03-06T09:55:44.232Z,98154.91
2023-03-06T09:58:16.702Z,98143.38
2023-03-06T10:00:59.622Z,98140.09
2023-03-06T10:03:32.440Z,98137.41
2023-03-06T10:06:04.093Z,98141.16
2023-03-06T10:08:38.123Z,98136.00
2023-03-06T10:11:08.757Z,98136.84
2023-03-06T10:13:40.146Z,98140.31
2023-03-06T10:16:20.080Z,98137.09
2023-03-06T10:18:48.279Z,98130.31
2023-03-06T10:21:27.210Z,98135.69
2023-03-06T10:23:58.395Z,98141.63
2023-03-06T10:26:26.840Z,98135.69
2023-03-06T10:29:08.987Z,98137.31
2023-03-06T10:31:38.633Z,98140.25
2023-03-06T10:34:20.419Z,98144.25
2023-03-06T10:36:47.210Z,98143.19
2023-03-06T10:39:16.557Z,98145.88
2023-03-06T10:41:45.357Z,98144.25
2023-03-06T10:44:24.094Z,98149.63
2023-03-06T10:46:53.289Z,98146.34
2023-03-06T10:49:30.497Z,98150.09
2023-03-06T10:52:00.358Z,98150.09
2023-03-06T10:54:31.992Z,98153.63
2023-03-06T10:57:16.885Z,98156.56
2023-03-06T10:59:52.340Z,98161.94
2023-03-06T11:02:27.397Z,98153.84
2023-03-06T11:04:58.206Z,98157.63
2023-03-06T11:07:26.188Z,98161.09
2023-03-06T11:10:16.647Z,98155.16
2023-03-06T11:12:44.002Z,98157.03
2023-03-06T11:15:22.979Z,98156.19
2023-03-06T11:17:53.839Z,98157.25
2023-03-06T11:20:24.791Z,98159.16
2023-03-06T11:22:56.143Z,98153.78
2023-03-06T11:25:28.302Z,98156.47
2023-03-06T11:28:00.197Z,98151.88
2023-03-06T11:30:32.501Z,98158.34
2023-03-06T11:33:03.064Z,98152.94
2023-03-06T11:35:35.802Z,98152.13
2023-03-06T11:38:07.110Z,98151.31
2023-03-06T11:40:41.876Z,98147.56
2023-03-06T11:43:18.917Z,98155.88
2023-03-06T11:45:48.861Z,98149.94
2023-03-06T11:48:24.753Z,98145.59
2023-03-06T11:50:55.454Z,98141.88
2023-03-06T11:53:26.437Z,98134.06
2023-03-06T11:56:02.288Z,98139.97
2023-03-06T11:58:47.059Z,98135.66
2023-03-06T12:01:22.727Z,98133.22
2023-03-06T12:03:58.615Z,98127.84
2023-03-06T12:06:41.533Z,98133.22
2023-03-06T12:09:29.202Z,98126.22
2023-03-06T12:12:19.502Z,98127.28
2023-03-06T12:15:08.576Z,98126.47
2023-03-06T12:17:53.106Z,98121.31
2023-03-06T12:20:33.547Z,98125.88
2023-03-06T12:23:15.450Z,98122.38
2023-03-06T12:25:45.193Z,98119.69
2023-03-06T12:28:40.131Z,98117.81
2023-03-06T12:31:24.568Z,98116.19
2023-03-06T12:34:01.304Z,98113.50
2023-03-06T12:36:38.846Z,98111.88
2023-03-06T12:39:10.601Z,98109.41
2023-03-06T12:41:48.064Z,98104.03
2023-03-06T12:44:30.228Z,98106.50
2023-03-06T12:47:01.663Z,98105.66
2023-03-06T12:49:32.608Z,98100.28
2023-03-06T12:52:01.339Z,98102.41
2023-03-06T12:54:31.478Z,98104.53
2023-03-06T12:57:00.626Z,98105.34
2023-03-06T12:59:44.319Z,98104.53
2023-03-06T13:02:44.366Z,98098.09
2023-03-06T13:05:47.244Z,98097.50
2023-03-06T13:08:54.302Z,98092.13
2023-03-06T13:12:08.060Z,98096.69
2023-03-06T13:14:56.136Z,98086.22
2023-03-06T13:17:37.389Z,98087.25
2023-03-06T13:20:35.710Z,98087.25
2023-03-06T13:23:40.971Z,98084.56
2023-03-06T13:26:10.858Z,98086.69
2023-03-06T13:28:49.967Z,98081.31
2023-03-06T13:31:28.303Z,98074.03
2023-03-06T13:33:58.545Z,98073.25
2023-03-06T13:36:28.555Z,98082.69
2023-03-06T13:39:06.437Z,98081.88
2023-03-06T13:41:58.704Z,98075.69
2023-03-06T13:44:48.769Z,98066.22
2023-03-06T13:47:32.239Z,98061.63
2023-03-06T13:49:59.903Z,98064.31
2023-03-06T13:52:38.285Z,98057.09
2023-03-06T13:55:18.679Z,98068.41
2023-03-06T13:58:01.110Z,98073.25
2023-03-06T14:01:18.437Z,98054.41
2023-03-06T14:04:20.954Z,98053.00
2023-03-06T14:06:52.072Z,98055.94
2023-03-06T14:09:32.596Z,98058.38
2023-03-06T14:12:04.901Z,98060.25
2023-03-06T14:14:41.700Z,98060.00
2023-03-06T14:17:18.761Z,98053.81
2023-03-06T14:19:47.610Z,98053.81
2023-03-06T14:22:17.861Z,98058.94
2023-03-06T14:24:54.304Z,98058.38
2023-03-06T14:27:21.458Z,98058.16
2023-03-06T14:29:49.778Z,98059.81
2023-03-06T14:32:21.519Z,98050.06
2023-03-06T14:34:49.781Z,98054.63
2023-03-06T14:37:20.783Z,98048.44
2023-03-06T14:39:47.870Z,98044.94
2023-03-06T14:42:19.527Z,98044.94
2023-03-06T14:44:47.359Z,98044.13
2023-03-06T14:47:25.015Z,98044.13
2023-03-06T14:50:24.250Z,98041.44
2023-03-06T14:52:55.530Z,98044.34
2023-03-06T14:55:24.491Z,98038.97
2023-03-06T14:57:56.892Z,98035.50
2023-03-06T15:00:36.270Z,98040.88
2023-03-06T15:03:06.757Z,98035.72
2023-03-06T15:05:35.375Z,98042.72
2023-03-06T15:08:08.440Z,98034.66
2023-03-06T15:10:36.742Z,98034.66
2023-03-06T15:13:13.981Z,98039.22
2023-03-06T15:15:40.841Z,98038.44
2023-03-06T15:18:28.671Z,98039.47
2023-03-06T15:21:11.601Z,98034.91
2023-03-06T15:23:40.913Z,98044.03
2023-03-06T15:26:29.551Z,98044.84
2023-03-06T15:29:20.299Z,98040.75
2023-03-06T15:31:47.310Z,98045.34
2023-03-06T15:34:18.509Z,98048.59
2023-03-06T15:36:48.557Z,98044.50
2023-03-06T15:39:30.160Z,98046.13
2023-03-06T15:41:57.486Z,98044.50
2023-03-06T15:44:24.443Z,98053.06
2023-03-06T15:46:56.299Z,98060.09
2023-03-06T15:49:26.477Z,98063.56
2023-03-06T15:51:55.043Z,98055.50
2023-03-06T15:54:21.848Z,98050.38
2023-03-06T15:56:50.107Z,98056.56
2023-03-06T15:59:22.299Z,98055.50
2023-03-06T16:01:49.838Z,98052.81
2023-03-06T16:04:17.142Z,98058.19
2023-03-06T16:06:45.831Z,98052.03
2023-03-06T16:09:14.564Z,98054.72
2023-03-06T16:11:47.304Z,98042.91
2023-03-06T16:14:20.089Z,98055.75
2023-03-06T16:16:49.466Z,98048.50
2023-03-06T16:19:25.910Z,98043.13
2023-03-06T16:21:53.643Z,98043.97
2023-03-06T16:24:22.004Z,98045.59
2023-03-06T16:26:51.195Z,98039.38
2023-03-06T16:29:19.633Z,98037.75
2023-03-06T16:31:46.776Z,98045.00
2023-03-06T16:34:13.792Z,98044.19
2023-03-06T16:36:41.461Z,98044.44
2023-03-06T16:39:13.112Z,98043.69
2023-03-06T16:41:41.411Z,98050.22
2023-03-06T16:44:10.103Z,98051.94
2023-03-06T16:46:39.850Z,98053.94
2023-03-06T16:49:07.209Z,98055.56
2023-03-06T16:51:34.239Z,98055.66
2023-03-06T16:54:01.094Z,98057.94
2023-03-06T16:56:27.880Z,98058.91
2023-03-06T16:58:56.094Z,98059.06
2023-03-06T17:01:23.076Z,98056.75
2023-03-06T17:03:49.965Z,98052.03
2023-03-06T17:06:18.355Z,98055.91
2023-03-06T17:08:46.256Z,98056.31
2023-03-06T17:11:13.679Z,98049.47
2023-03-06T17:13:41.012Z,98046.09
2023-03-06T17:16:16.126Z,98044.59
2023-03-06T17:18:44.161Z,98049.06
2023-03-06T17:21:11.570Z,98056.44
2023-03-06T17:23:38.729Z,98048.72
2023-03-06T17:26:08.411Z,98049.94
2023-03-06T17:28:36.384Z,98048.44
2023-03-06T17:31:10.433Z,98046.38
2023-03-06T17:33:38.930Z,98043.22
2023-03-06T17:36:06.656Z,98054.34
2023-03-06T17:38:33.521Z,98053.34
2023-03-06T17:41:03.647Z,98055.81
2023-03-06T17:43:31.097Z,98056.41
2023-03-06T17:46:01.750Z,98059.72
2023-03-06T17:48:28.548Z,98054.34
2023-03-06T17:50:57.193Z,98061.44
2023-03-06T17:53:24.006Z,98055.31
2023-03-06T17:55:50.959Z,98063.69
2023-03-06T17:58:17.904Z,98061.84
2023-03-06T18:00:45.864Z,98055.97
2023-03-06T18:03:12.766Z,98061.38
2023-03-06T18:05:39.594Z,98071.66
2023-03-06T18:08:10.204Z,98067.38
2023-03-06T18:10:41.394Z,98061.19
2023-03-06T18:13:09.305Z,98060.44
2023-03-06T18:15:38.772Z,98065.28
2023-03-06T18:18:05.910Z,98071.25
2023-03-06T18:20:33.046Z,98071.53
2023-03-06T18:23:03.498Z,98073.97
2023-03-06T18:25:32.438Z,98079.69
2023-03-06T18:27:59.381Z,98074.84
2023-03-06T18:30:26.294Z,98068.09
2023-03-06T18:32:53.492Z,98067.84
2023-03-06T18:35:20.681Z,98063.81
2023-03-06T18:37:47.558Z,98057.06
2023-03-06T18:40:15.105Z,98070.06
2023-03-06T18:42:43.467Z,98066.03
2023-03-06T18:45:11.301Z,98063.66
2023-03-06T18:47:38.273Z,98066.88
2023-03-06T18:50:06.204Z,98063.94
2023-03-06T18:52:33.732Z,98066.13
2023-03-06T18:55:00.571Z,98056.94
2023-03-06T18:57:29.286Z,98054.78
2023-03-06T18:59:58.458Z,98052.91
2023-03-06T19:02:26.234Z,98049.13
2023-03-06T19:04:53.130Z,98054.00
2023-03-06T19:07:20.140Z,98054.56
2023-03-06T19:09:48.220Z,98055.09
2023-03-06T19:12:15.581Z,98044.28
2023-03-06T19:14:42.350Z,98043.22
2023-03-06T19:17:10.532Z,98034.59
2023-03-06T19:19:37.343Z,98032.44
2023-03-06T19:22:04.302Z,98034.88
2023-03-06T19:24:31.132Z,98032.97
2023-03-06T19:26:57.963Z,98028.41
2023-03-06T19:29:24.788Z,98035.44
2023-03-06T19:31:52.228Z,98027.06
2023-03-06T19:34:20.465Z,98032.47
2023-03-06T19:36:49.870Z,98029.50
2023-03-06T19:39:16.620Z,98030.28
2023-03-06T19:41:43.504Z,98033.56
2023-03-06T19:44:12.263Z,98027.06
2023-03-06T19:46:40.802Z,98028.69
2023-03-06T19:49:12.095Z,98028.69
2023-03-06T19:51:40.230Z,98026.56
2023-03-06T19:54:07.008Z,98036.00
2023-03-06T19:56:33.859Z,98027.59
2023-03-06T19:59:00.699Z,98025.72
2023-03-06T20:01:28.649Z,98026.28
2023-03-06T20:03:58.897Z,98027.09
2023-03-06T20:06:28.092Z,98024.94
2023-03-06T20:08:56.291Z,98028.44
2023-03-06T20:11:25.321Z,98017.38
2023-03-06T20:13:52.652Z,98014.66
2023-03-06T20:16:19.702Z,98017.13
2023-03-06T20:18:46.746Z,98006.03
2023-03-06T20:21:14.184Z,98011.44
2023-03-06T20:23:41.040Z,98007.66
2023-03-06T20:26:12.178Z,98003.06
2023-03-06T20:28:39.657Z,98000.13
2023-03-06T20:31:07.557Z,98007.13
2023-03-06T20:33:34.542Z,98003.59
2023-03-06T20:36:01.427Z,98010.94
2023-03-06T20:38:28.316Z,98003.88
2023-03-06T20:40:56.193Z,98010.63
2023-03-06T20:43:24.476Z,98003.88
2023-03-06T20:45:58.769Z,98004.69
2023-03-06T20:48:25.690Z,98004.38
2023-03-06T20:51:00.197Z,98001.66
2023-03-06T20:53:27.377Z,98005.72
2023-03-06T20:55:54.241Z,98003.25
2023-03-06T20:58:23.299Z,98003.78
2023-03-06T21:00:51.870Z,98000.25
2023-03-06T21:03:18.653Z,98001.03
2023-03-06T21:05:46.188Z,98003.44
2023-03-06T21:08:12.969Z,98008.00
2023-03-06T21:10:39.806Z,98008.78
2023-03-06T21:13:06.641Z,98002.53
2023-03-06T21:15:33.655Z,98003.31
2023-03-06T21:18:01.898Z,97994.38
2023-03-06T21:20:28.653Z,97999.47
2023-03-06T21:22:56.410Z,97993.81
2023-03-06T21:25:23.227Z,97981.34
2023-03-06T21:27:50.162Z,97985.88
2023-03-06T21:30:17.309Z,97985.31
2023-03-06T21:32:44.208Z,97978.00
2023-03-06T21:35:12.502Z,97981.72
2023-03-06T21:37:39.425Z,97982.53
2023-03-06T21:40:07.740Z,97985.72
2023-03-06T21:42:37.879Z,97984.63
2023-03-06T21:45:05.757Z,97979.94
2023-03-06T21:47:37.775Z,97977.78
2023-03-06T21:50:05.402Z,97986.41
2023-03-06T21:52:33.551Z,97989.84
2023-03-06T21:55:00.396Z,97979.59
2023-03-06T21:57:27.241Z,97985.25
2023-03-06T21:59:54.083Z,97980.63
2023-03-06T22:02:20.979Z,97976.56
2023-03-06T22:04:50.143Z,97977.31
2023-03-06T22:07:17.153Z,97980.56
2023-03-06T22:09:45.533Z,97971.34
2023-03-06T22:12:12.534Z,97968.91
2023-03-06T22:14:39.514Z,97969.41
2023-03-06T22:17:06.283Z,97974.19
2023-03-06T22:19:33.150Z,97971.75
2023-03-06T22:22:00.024Z,97974.97
2023-03-06T22:24:26.761Z,97969.00
2023-03-06T22:26:55.086Z,97963.06
2023-03-06T22:29:22.003Z,97958.69
2023-03-06T22:31:48.840Z,97963.13
2023-03-06T22:34:15.689Z,97950.69
2023-03-06T22:36:42.587Z,97947.69
2023-03-06T22:39:12.789Z,97949.50
2023-03-06T22:41:40.177Z,97960.25
2023-03-06T22:44:14.405Z,97958.63
2023-03-06T22:46:41.894Z,97961.94
2023-03-06T22:49:11.769Z,97960.84
2023-03-06T22:51:39.254Z,97958.16
2023-03-06T22:54:07.062Z,97954.09
2023-03-06T22:56:34.112Z,97953.78
2023-03-06T22:59:01.220Z,97953.78
2023-03-06T23:01:31.435Z,97948.38
2023-03-06T23:04:00.189Z,97944.91
2023-03-06T23:06:29.589Z,97946.78
2023-03-06T23:08:58.132Z,97935.72
2023-03-06T23:11:27.793Z,97929.50
2023-03-06T23:14:14.283Z,97937.03
2023-03-06T23:17:00.954Z,97941.84
2023-03-06T23:19:49.364Z,97937.22
2023-03-06T23:22:34.459Z,97932.09
2023-03-06T23:25:19.844Z,97932.34
2023-03-06T23:27:46.711Z,97936.91
2023-03-06T23:30:14.243Z,97931.53
2023-03-06T23:32:44.827Z,97930.97
2023-03-06T23:35:12.648Z,97928.28
2023-03-06T23:37:39.496Z,97932.00
2023-03-06T23:40:09.250Z,97934.16
2023-03-06T23:42:36.183Z,97932.28
2023-03-06T23:45:03.291Z,97930.66
2023-03-06T23:47:32.078Z,97940.03
2023-03-06T23:50:00.274Z,97935.97
2023-03-06T23:52:27.114Z,97928.16
2023-03-06T23:54:54.129Z,97933.53
2023-03-06T23:57:21.028Z,97936.22
2023-03-06T23:59:47.832Z,97925.72
